PWSweather.com
Personal Weather Stations
Station Observations
MARICOPA
Cobblestone Farms, Maricopa, AZ 85139

Cobblestone FarmsMaricopa, AZ 85139

Lat: 33.076, Lon: -112.0445

Elevation: 1148

Station Type: LaCrosse 2310/15

http://weather.azkiwis.net

Latest ConditionsUpdated 11:30:19 PM MST Monday, Sep 1, 2014
Currently Today's Max Today's Min Today's Average
Temperature 84.9°F29.4°C 113.0°F45.0°C 70.2°F21.2°C 92.2°F33.4°C
Dew Point 44.1°F6.7°C 55.0°F12.8°C 40.5°F4.7°C 47.3°F8.5°C
Winds Calm Calm 6.9 mph SSE11.1 kmh SSE - 1.1 mph 1.8 kmh
Wind Gusts -- 8.9 mph14.3 kmh - -
Humidity 24% 42% 11% 23%
Pressure 29.78 in1008.5 mb 29.87 in1011.5 mb 29.72 in1006.4 mb -
Hour Temp Dew Point Humidity Winds Wind Gusts Pressure Precip Precip Rate Daily Precip Total
11:30 PM 84.9°F29.4°C 44.1°F6.7°C 24% Calm Calm -- 29.78 in1008.5 mb 0.00 in0.0 mm 0.00 in/hr0.0 mm/hr 0.00 in0.0 mm
11:15 PM 85.6°F29.8°C 44.7°F7.1°C 24% Calm Calm -- 29.77 in1008.1 mb 0.00 in0.0 mm 0.00 in/hr0.0 mm/hr 0.00 in0.0 mm
11:00 PM 86.0°F30.0°C 43.9°F6.6°C 23% Calm Calm -- 29.78 in1008.5 mb 0.00 in0.0 mm 0.00 in/hr0.0 mm/hr 0.00 in0.0 mm
10:45 PM 86.4°F30.2°C 44.2°F6.8°C 23% Calm Calm -- 29.77 in1008.1 mb 0.00 in0.0 mm 0.00 in/hr0.0 mm/hr 0.00 in0.0 mm
10:30 PM 87.3°F30.7°C 44.9°F7.2°C 23% Calm Calm -- 29.77 in1008.1 mb 0.00 in0.0 mm 0.00 in/hr0.0 mm/hr 0.00 in0.0 mm
10:15 PM 88.2°F31.2°C 45.7°F7.6°C 23% Calm Calm -- 29.77 in1008.1 mb 0.00 in0.0 mm 0.00 in/hr0.0 mm/hr 0.00 in0.0 mm
10:00 PM 89.0°F31.7°C 45.2°F7.3°C 22% Calm Calm 1.6 mph2.6 kmh 29.77 in1008.1 mb 0.00 in0.0 mm 0.00 in/hr0.0 mm/hr 0.00 in0.0 mm
09:45 PM 89.7°F32.1°C 45.8°F7.7°C 22% Calm Calm -- 29.77 in1008.1 mb 0.00 in0.0 mm 0.00 in/hr0.0 mm/hr 0.00 in0.0 mm
09:30 PM 90.5°F32.5°C 45.2°F7.3°C 21% 0.3 mph W0.5 kmh W 0.7 mph1.1 kmh 29.77 in1008.1 mb 0.00 in0.0 mm 0.00 in/hr0.0 mm/hr 0.00 in0.0 mm
09:15 PM 91.8°F33.2°C 47.5°F8.6°C 22% Calm Calm -- 29.76 in1007.8 mb 0.00 in0.0 mm 0.00 in/hr0.0 mm/hr 0.00 in0.0 mm
09:00 PM 92.8°F33.8°C 47.2°F8.4°C 21% Calm Calm -- 29.76 in1007.8 mb 0.00 in0.0 mm 0.00 in/hr0.0 mm/hr 0.00 in0.0 mm
08:45 PM 93.7°F34.3°C 46.6°F8.1°C 20% Calm Calm -- 29.76 in1007.8 mb 0.00 in0.0 mm 0.00 in/hr0.0 mm/hr 0.00 in0.0 mm
08:30 PM 94.6°F34.8°C 47.3°F8.5°C 20% 0.8 mph W1.3 kmh W 2.5 mph4.0 kmh 29.75 in1007.5 mb 0.00 in0.0 mm 0.00 in/hr0.0 mm/hr 0.00 in0.0 mm
08:15 PM 95.5°F35.3°C 46.7°F8.2°C 19% 0.3 mph WSW0.5 kmh WSW 1.8 mph2.9 kmh 29.74 in1007.1 mb 0.00 in0.0 mm 0.00 in/hr0.0 mm/hr 0.00 in0.0 mm
08:00 PM 96.6°F35.9°C 46.1°F7.8°C 18% Calm Calm -- 29.74 in1007.1 mb 0.00 in0.0 mm 0.00 in/hr0.0 mm/hr 0.00 in0.0 mm
07:45 PM 98.1°F36.7°C 47.3°F8.5°C 18% Calm Calm -- 29.73 in1006.8 mb 0.00 in0.0 mm 0.00 in/hr0.0 mm/hr 0.00 in0.0 mm
07:30 PM 99.7°F37.6°C 48.7°F9.3°C 18% Calm Calm -- 29.73 in1006.8 mb 0.00 in0.0 mm 0.00 in/hr0.0 mm/hr 0.00 in0.0 mm
07:15 PM 101.6°F38.7°C 48.7°F9.3°C 17% Calm Calm -- 29.72 in1006.4 mb 0.00 in0.0 mm 0.00 in/hr0.0 mm/hr 0.00 in0.0 mm
07:00 PM 103.5°F39.7°C 46.8°F8.2°C 15% Calm Calm -- 29.72 in1006.4 mb 0.00 in0.0 mm 0.00 in/hr0.0 mm/hr 0.00 in0.0 mm
06:45 PM 105.4°F40.8°C 46.5°F8.1°C 14% Calm Calm -- 29.72 in1006.4 mb 0.00 in0.0 mm 0.00 in/hr0.0 mm/hr 0.00 in0.0 mm
06:30 PM 107.6°F42.0°C 46.2°F7.9°C 13% Calm Calm -- 29.72 in1006.4 mb 0.00 in0.0 mm 0.00 in/hr0.0 mm/hr 0.00 in0.0 mm
06:15 PM 108.9°F42.7°C 49.3°F9.6°C 14% Calm Calm -- 29.72 in1006.4 mb 0.00 in0.0 mm 0.00 in/hr0.0 mm/hr 0.00 in0.0 mm
06:00 PM 109.8°F43.2°C 45.8°F7.7°C 12% 3.5 mph NW5.6 kmh NW 6.7 mph10.8 kmh 29.73 in1006.8 mb 0.00 in0.0 mm 0.00 in/hr0.0 mm/hr 0.00 in0.0 mm
05:45 PM 109.9°F43.3°C 43.6°F6.4°C 11% Calm Calm -- 29.73 in1006.8 mb 0.00 in0.0 mm 0.00 in/hr0.0 mm/hr 0.00 in0.0 mm
05:30 PM 110.5°F43.6°C 46.3°F7.9°C 12% 0.2 mph WSW0.3 kmh WSW 1.6 mph2.6 kmh 29.73 in1006.8 mb 0.00 in0.0 mm 0.00 in/hr0.0 mm/hr 0.00 in0.0 mm
05:15 PM 110.8°F43.8°C 44.3°F6.8°C 11% 2.6 mph NW4.2 kmh NW 4.7 mph7.6 kmh 29.73 in1006.8 mb 0.00 in0.0 mm 0.00 in/hr0.0 mm/hr 0.00 in0.0 mm
05:00 PM 111.6°F44.2°C 44.9°F7.2°C 11% 2.4 mph NW3.9 kmh NW 5.6 mph9.0 kmh 29.74 in1007.1 mb 0.00 in0.0 mm 0.00 in/hr0.0 mm/hr 0.00 in0.0 mm
04:45 PM 112.6°F44.8°C 45.7°F7.6°C 11% 0.1 mph SSE0.2 kmh SSE -- 29.73 in1006.8 mb 0.00 in0.0 mm 0.00 in/hr0.0 mm/hr 0.00 in0.0 mm
04:30 PM 113.0°F45.0°C 48.3°F9.1°C 12% 4.9 mph SE7.9 kmh SE 8.5 mph13.7 kmh 29.74 in1007.1 mb 0.00 in0.0 mm 0.00 in/hr0.0 mm/hr 0.00 in0.0 mm
04:15 PM 112.8°F44.9°C 48.1°F8.9°C 12% 0.3 mph ESE0.5 kmh ESE 3.8 mph6.1 kmh 29.73 in1006.8 mb 0.00 in0.0 mm 0.00 in/hr0.0 mm/hr 0.00 in0.0 mm
04:00 PM 112.5°F44.7°C 47.9°F8.8°C 12% Calm Calm -- 29.74 in1007.1 mb 0.00 in0.0 mm 0.00 in/hr0.0 mm/hr 0.00 in0.0 mm
03:45 PM 111.5°F44.2°C 49.2°F9.6°C 13% 0.4 mph ESE0.6 kmh ESE -- 29.74 in1007.1 mb 0.00 in0.0 mm 0.00 in/hr0.0 mm/hr 0.00 in0.0 mm
03:30 PM 110.8°F43.8°C 50.7°F10.4°C 14% 0.5 mph NNW0.8 kmh NNW 1.3 mph2.1 kmh 29.75 in1007.5 mb 0.00 in0.0 mm 0.00 in/hr0.0 mm/hr 0.00 in0.0 mm
03:15 PM 111.0°F43.9°C 48.9°F9.4°C 13% 0.5 mph NNW0.8 kmh NNW -- 29.75 in1007.5 mb 0.00 in0.0 mm 0.00 in/hr0.0 mm/hr 0.00 in0.0 mm
03:00 PM 111.6°F44.2°C 49.3°F9.6°C 13% 0.2 mph NW0.3 kmh NW 0.9 mph1.4 kmh 29.76 in1007.8 mb 0.00 in0.0 mm 0.00 in/hr0.0 mm/hr 0.00 in0.0 mm
02:45 PM 111.5°F44.2°C 51.3°F10.7°C 14% 3.5 mph SSE5.6 kmh SSE 6.3 mph10.1 kmh 29.77 in1008.1 mb 0.00 in0.0 mm 0.00 in/hr0.0 mm/hr 0.00 in0.0 mm
02:30 PM 111.4°F44.1°C 51.2°F10.7°C 14% 5.9 mph SW9.5 kmh SW 4.2 mph6.8 kmh 29.78 in1008.5 mb 0.00 in0.0 mm 0.00 in/hr0.0 mm/hr 0.00 in0.0 mm
02:15 PM 110.7°F43.7°C 48.6°F9.2°C 13% 1.8 mph ESE2.9 kmh ESE 5.8 mph9.3 kmh 29.79 in1008.8 mb 0.00 in0.0 mm 0.00 in/hr0.0 mm/hr 0.00 in0.0 mm
02:00 PM 109.8°F43.2°C 49.9°F9.9°C 14% 4.5 mph E7.2 kmh E 6.5 mph10.5 kmh 29.79 in1008.8 mb 0.00 in0.0 mm 0.00 in/hr0.0 mm/hr 0.00 in0.0 mm
01:45 PM 109.4°F43.0°C 51.5°F10.8°C 15% 1.1 mph ESE1.8 kmh ESE 1.6 mph2.6 kmh 29.80 in1009.1 mb 0.00 in0.0 mm 0.00 in/hr0.0 mm/hr 0.00 in0.0 mm
01:30 PM 108.5°F42.5°C 48.9°F9.4°C 14% 1.6 mph E2.6 kmh E 4.5 mph7.2 kmh 29.81 in1009.5 mb 0.00 in0.0 mm 0.00 in/hr0.0 mm/hr 0.00 in0.0 mm
01:15 PM 107.8°F42.1°C 52.0°F11.1°C 16% 2.5 mph SSE4.0 kmh SSE 5.6 mph9.0 kmh 29.81 in1009.5 mb 0.00 in0.0 mm 0.00 in/hr0.0 mm/hr 0.00 in0.0 mm
01:00 PM 107.2°F41.8°C 54.7°F12.6°C 18% 2.5 mph ESE4.0 kmh ESE 4.5 mph7.2 kmh 29.82 in1009.8 mb 0.00 in0.0 mm 0.00 in/hr0.0 mm/hr 0.00 in0.0 mm
12:45 PM 106.5°F41.4°C 54.2°F12.3°C 18% 0.3 mph SSE0.5 kmh SSE 1.8 mph2.9 kmh 29.82 in1009.8 mb 0.00 in0.0 mm 0.00 in/hr0.0 mm/hr 0.00 in0.0 mm
12:30 PM 105.8°F41.0°C 53.6°F12.0°C 18% 3.4 mph SE5.5 kmh SE 7.4 mph11.9 kmh 29.83 in1010.2 mb 0.00 in0.0 mm 0.00 in/hr0.0 mm/hr 0.00 in0.0 mm
12:15 PM 105.3°F40.7°C 53.1°F11.7°C 18% 0.6 mph SSE1.0 kmh SSE 3.4 mph5.5 kmh 29.84 in1010.5 mb 0.00 in0.0 mm 0.00 in/hr0.0 mm/hr 0.00 in0.0 mm
12:00 PM 104.6°F40.3°C 54.1°F12.3°C 19% 3.5 mph SSE5.6 kmh SSE 6.7 mph10.8 kmh 29.84 in1010.5 mb 0.00 in0.0 mm 0.00 in/hr0.0 mm/hr 0.00 in0.0 mm
11:45 AM 103.6°F39.8°C 53.3°F11.8°C 19% 2.4 mph SSE3.9 kmh SSE 8.9 mph14.3 kmh 29.84 in1010.5 mb 0.00 in0.0 mm 0.00 in/hr0.0 mm/hr 0.00 in0.0 mm
11:30 AM 102.7°F39.3°C 54.0°F12.2°C 20% 2.5 mph ESE4.0 kmh ESE 2.9 mph4.7 kmh 29.85 in1010.8 mb 0.00 in0.0 mm 0.00 in/hr0.0 mm/hr 0.00 in0.0 mm
11:15 AM 101.8°F38.8°C 53.2°F11.8°C 20% 1.4 mph S2.3 kmh S 3.4 mph5.5 kmh 29.86 in1011.2 mb 0.00 in0.0 mm 0.00 in/hr0.0 mm/hr 0.00 in0.0 mm
11:00 AM 100.8°F38.2°C 53.7°F12.1°C 21% 6.9 mph SSE11.1 kmh SSE 8.5 mph13.7 kmh 29.86 in1011.2 mb 0.00 in0.0 mm 0.00 in/hr0.0 mm/hr 0.00 in0.0 mm
10:45 AM 99.5°F37.5°C 53.9°F12.2°C 22% 2.0 mph SSE3.2 kmh SSE 6.3 mph10.1 kmh 29.86 in1011.2 mb 0.00 in0.0 mm 0.00 in/hr0.0 mm/hr 0.00 in0.0 mm
10:30 AM 98.2°F36.8°C 52.9°F11.6°C 22% 3.4 mph SE5.5 kmh SE 5.4 mph8.7 kmh 29.86 in1011.2 mb 0.00 in0.0 mm 0.00 in/hr0.0 mm/hr 0.00 in0.0 mm
10:15 AM 96.5°F35.8°C 55.0°F12.8°C 25% 4.5 mph ESE7.2 kmh ESE 6.3 mph10.1 kmh 29.87 in1011.5 mb 0.00 in0.0 mm 0.00 in/hr0.0 mm/hr 0.00 in0.0 mm
10:00 AM 94.2°F34.6°C 53.0°F11.7°C 25% 3.3 mph SE5.3 kmh SE 4.9 mph7.9 kmh 29.87 in1011.5 mb 0.00 in0.0 mm 0.00 in/hr0.0 mm/hr 0.00 in0.0 mm
09:45 AM 91.9°F33.3°C 53.2°F11.8°C 27% 4.2 mph S6.8 kmh S 5.6 mph9.0 kmh 29.86 in1011.2 mb 0.00 in0.0 mm 0.00 in/hr0.0 mm/hr 0.00 in0.0 mm
09:30 AM 89.3°F31.8°C 52.0°F11.1°C 28% 5.2 mph SSE8.4 kmh SSE 8.3 mph13.4 kmh 29.87 in1011.5 mb 0.00 in0.0 mm 0.00 in/hr0.0 mm/hr 0.00 in0.0 mm
09:15 AM 86.8°F30.4°C 52.5°F11.4°C 31% 2.9 mph SE4.7 kmh SE 4.5 mph7.2 kmh 29.87 in1011.5 mb 0.00 in0.0 mm 0.00 in/hr0.0 mm/hr 0.00 in0.0 mm
09:00 AM 84.0°F28.9°C 52.6°F11.4°C 34% 0.1 mph E0.2 kmh E 3.6 mph5.8 kmh 29.87 in1011.5 mb 0.00 in0.0 mm 0.00 in/hr0.0 mm/hr 0.00 in0.0 mm
08:45 AM 81.5°F27.5°C 51.2°F10.7°C 35% Calm Calm -- 29.86 in1011.2 mb 0.00 in0.0 mm 0.00 in/hr0.0 mm/hr 0.00 in0.0 mm
08:30 AM 79.2°F26.2°C 49.9°F9.9°C 36% Calm Calm -- 29.86 in1011.2 mb 0.00 in0.0 mm 0.00 in/hr0.0 mm/hr 0.00 in0.0 mm
08:15 AM 77.2°F25.1°C 48.9°F9.4°C 37% Calm Calm -- 29.86 in1011.2 mb 0.00 in0.0 mm 0.00 in/hr0.0 mm/hr 0.00 in0.0 mm
08:00 AM 75.2°F24.0°C 49.2°F9.6°C 40% Calm Calm -- 29.86 in1011.2 mb 0.00 in0.0 mm 0.00 in/hr0.0 mm/hr 0.00 in0.0 mm
07:45 AM 73.6°F23.1°C 47.1°F8.4°C 39% Calm Calm -- 29.86 in1011.2 mb 0.00 in0.0 mm 0.00 in/hr0.0 mm/hr 0.00 in0.0 mm
07:30 AM 72.3°F22.4°C 46.6°F8.1°C 40% Calm Calm -- 29.85 in1010.8 mb 0.00 in0.0 mm 0.00 in/hr0.0 mm/hr 0.00 in0.0 mm
07:15 AM 71.2°F21.8°C 45.6°F7.6°C 40% Calm Calm -- 29.84 in1010.5 mb 0.00 in0.0 mm 0.00 in/hr0.0 mm/hr 0.00 in0.0 mm
07:00 AM 70.3°F21.3°C 44.9°F7.2°C 40% Calm Calm -- 29.84 in1010.5 mb 0.00 in0.0 mm 0.00 in/hr0.0 mm/hr 0.00 in0.0 mm
06:45 AM 70.2°F21.2°C 46.0°F7.8°C 42% Calm Calm -- 29.85 in1010.8 mb 0.00 in0.0 mm 0.00 in/hr0.0 mm/hr 0.00 in0.0 mm
06:30 AM 70.7°F21.5°C 45.1°F7.3°C 40% Calm Calm -- 29.84 in1010.5 mb 0.00 in0.0 mm 0.00 in/hr0.0 mm/hr 0.00 in0.0 mm
06:15 AM 71.2°F21.8°C 45.0°F7.2°C 39% Calm Calm -- 29.83 in1010.2 mb 0.00 in0.0 mm 0.00 in/hr0.0 mm/hr 0.00 in0.0 mm
06:00 AM 72.0°F22.2°C 45.6°F7.6°C 39% Calm Calm -- 29.83 in1010.2 mb 0.00 in0.0 mm 0.00 in/hr0.0 mm/hr 0.00 in0.0 mm
05:45 AM 72.5°F22.5°C 46.1°F7.8°C 39% Calm Calm -- 29.83 in1010.2 mb 0.00 in0.0 mm 0.00 in/hr0.0 mm/hr 0.00 in0.0 mm
05:30 AM 73.4°F23.0°C 46.3°F7.9°C 38% 0.1 mph SE0.2 kmh SE 1.1 mph1.8 kmh 29.82 in1009.8 mb 0.00 in0.0 mm 0.00 in/hr0.0 mm/hr 0.00 in0.0 mm
05:15 AM 74.4°F23.6°C 45.7°F7.6°C 36% Calm Calm -- 29.81 in1009.5 mb 0.00 in0.0 mm 0.00 in/hr0.0 mm/hr 0.00 in0.0 mm
05:00 AM 75.3°F24.1°C 46.5°F8.1°C 36% Calm Calm -- 29.81 in1009.5 mb 0.00 in0.0 mm 0.00 in/hr0.0 mm/hr 0.00 in0.0 mm
04:45 AM 75.9°F24.4°C 44.7°F7.1°C 33% 0.4 mph SE0.6 kmh SE 2.9 mph4.7 kmh 29.81 in1009.5 mb 0.00 in0.0 mm 0.00 in/hr0.0 mm/hr 0.00 in0.0 mm
04:30 AM 76.1°F24.5°C 43.3°F6.3°C 31% Calm Calm -- 29.80 in1009.1 mb 0.00 in0.0 mm 0.00 in/hr0.0 mm/hr 0.00 in0.0 mm
04:15 AM 75.9°F24.4°C 43.9°F6.6°C 32% 1.9 mph SSE3.1 kmh SSE 1.6 mph2.6 kmh 29.80 in1009.1 mb 0.00 in0.0 mm 0.00 in/hr0.0 mm/hr 0.00 in0.0 mm
04:00 AM 76.1°F24.5°C 44.1°F6.7°C 32% 1.2 mph SSE1.9 kmh SSE 5.1 mph8.2 kmh 29.80 in1009.1 mb 0.00 in0.0 mm 0.00 in/hr0.0 mm/hr 0.00 in0.0 mm
03:45 AM 76.6°F24.8°C 43.7°F6.5°C 31% Calm Calm -- 29.80 in1009.1 mb 0.00 in0.0 mm 0.00 in/hr0.0 mm/hr 0.00 in0.0 mm
03:30 AM 77.4°F25.2°C 42.6°F5.9°C 29% 0.2 mph ESE0.3 kmh ESE -- 29.80 in1009.1 mb 0.00 in0.0 mm 0.00 in/hr0.0 mm/hr 0.00 in0.0 mm
03:15 AM 78.1°F25.6°C 42.3°F5.7°C 28% 0.4 mph SE0.6 kmh SE 3.4 mph5.5 kmh 29.80 in1009.1 mb 0.00 in0.0 mm 0.00 in/hr0.0 mm/hr 0.00 in0.0 mm
03:00 AM 78.9°F26.1°C 42.1°F5.6°C 27% 0.3 mph SE0.5 kmh SE 1.6 mph2.6 kmh 29.80 in1009.1 mb 0.00 in0.0 mm 0.00 in/hr0.0 mm/hr 0.00 in0.0 mm
02:45 AM 79.7°F26.5°C 42.8°F6.0°C 27% 0.2 mph SSE0.3 kmh SSE 2.5 mph4.0 kmh 29.80 in1009.1 mb 0.00 in0.0 mm 0.00 in/hr0.0 mm/hr 0.00 in0.0 mm
02:30 AM 80.2°F26.8°C 42.2°F5.7°C 26% 0.7 mph SSE1.1 kmh SSE 2.2 mph3.5 kmh 29.79 in1008.8 mb 0.00 in0.0 mm 0.00 in/hr0.0 mm/hr 0.00 in0.0 mm
02:15 AM 81.0°F27.2°C 41.8°F5.4°C 25% 2.7 mph SSE4.3 kmh SSE 4.5 mph7.2 kmh 29.80 in1009.1 mb 0.00 in0.0 mm 0.00 in/hr0.0 mm/hr 0.00 in0.0 mm
02:00 AM 81.3°F27.4°C 42.1°F5.6°C 25% 0.5 mph SSW0.8 kmh SSW 4.0 mph6.4 kmh 29.79 in1008.8 mb 0.00 in0.0 mm 0.00 in/hr0.0 mm/hr 0.00 in0.0 mm
01:45 AM 81.2°F27.3°C 41.0°F5.0°C 24% 1.6 mph SW2.6 kmh SW 1.6 mph2.6 kmh 29.79 in1008.8 mb 0.00 in0.0 mm 0.00 in/hr0.0 mm/hr 0.00 in0.0 mm
01:30 AM 81.3°F27.4°C 41.1°F5.1°C 24% 0.7 mph SSW1.1 kmh SSW 2.0 mph3.2 kmh 29.80 in1009.1 mb 0.00 in0.0 mm 0.00 in/hr0.0 mm/hr 0.00 in0.0 mm
01:15 AM 81.9°F27.7°C 41.5°F5.3°C 24% 1.3 mph SSW2.1 kmh SSW 2.2 mph3.5 kmh 29.80 in1009.1 mb 0.00 in0.0 mm 0.00 in/hr0.0 mm/hr 0.00 in0.0 mm
01:00 AM 82.9°F28.3°C 42.4°F5.8°C 24% 2.8 mph SSE4.5 kmh SSE 3.1 mph5.0 kmh 29.79 in1008.8 mb 0.00 in0.0 mm 0.00 in/hr0.0 mm/hr 0.00 in0.0 mm
12:45 AM 84.2°F29.0°C 43.5°F6.4°C 24% Calm Calm -- 29.79 in1008.8 mb 0.00 in0.0 mm 0.00 in/hr0.0 mm/hr 0.00 in0.0 mm
12:30 AM 84.7°F29.3°C 40.5°F4.7°C 21% 0.3 mph SSW0.5 kmh SSW 2.0 mph3.2 kmh 29.79 in1008.8 mb 0.00 in0.0 mm 0.00 in/hr0.0 mm/hr 0.00 in0.0 mm
12:15 AM 85.3°F29.6°C 41.0°F5.0°C 21% 2.2 mph SSW3.5 kmh SSW 3.4 mph5.5 kmh 29.79 in1008.8 mb 0.00 in0.0 mm 0.00 in/hr0.0 mm/hr 0.00 in0.0 mm
12:00 AM 86.0°F30.0°C 41.5°F5.3°C 21% 1.0 mph SSW1.6 kmh SSW 4.9 mph7.9 kmh 29.79 in1008.8 mb 0.00 in0.0 mm 0.00 in/hr0.0 mm/hr 0.00 in0.0 mm